sensor_id;sensor_type;location;lat;lon;timestamp;temperature;humidity
53282;DHT22;39167;52.794;6.892;2023-02-26T00:01:40;0.80;99.90
53282;DHT22;39167;52.794;6.892;2023-02-26T00:04:07;0.80;99.90
53282;DHT22;39167;52.794;6.892;2023-02-26T00:06:38;1.10;99.90
53282;DHT22;39167;52.794;6.892;2023-02-26T00:09:17;1.60;99.90
53282;DHT22;39167;52.794;6.892;2023-02-26T00:11:43;0.80;99.90
53282;DHT22;39167;52.794;6.892;2023-02-26T00:14:13;0.80;99.90
53282;DHT22;39167;52.794;6.892;2023-02-26T00:16:39;0.70;99.90
53282;DHT22;39167;52.794;6.892;2023-02-26T00:19:06;0.70;99.90
53282;DHT22;39167;52.794;6.892;2023-02-26T00:21:33;0.60;99.90
53282;DHT22;39167;52.794;6.892;2023-02-26T00:24:02;0.60;99.90
53282;DHT22;39167;52.794;6.892;2023-02-26T00:26:31;1.50;99.90
53282;DHT22;39167;52.794;6.892;2023-02-26T00:28:58;1.60;99.90
53282;DHT22;39167;52.794;6.892;2023-02-26T00:31:24;0.50;99.90
53282;DHT22;39167;52.794;6.892;2023-02-26T00:33:51;0.50;99.90
53282;DHT22;39167;52.794;6.892;2023-02-26T00:36:28;0.60;99.90
53282;DHT22;39167;52.794;6.892;2023-02-26T00:41:29;1.10;99.90
53282;DHT22;39167;52.794;6.892;2023-02-26T00:43:55;0.50;99.90
53282;DHT22;39167;52.794;6.892;2023-02-26T00:51:57;0.60;99.90
53282;DHT22;39167;52.794;6.892;2023-02-26T00:54:25;0.40;99.90
53282;DHT22;39167;52.794;6.892;2023-02-26T00:56:53;0.40;99.90
53282;DHT22;39167;52.794;6.892;2023-02-26T00:59:20;0.40;99.90
53282;DHT22;39167;52.794;6.892;2023-02-26T01:01:46;1.60;99.90
53282;DHT22;39167;52.794;6.892;2023-02-26T01:04:14;1.60;99.90
53282;DHT22;39167;52.794;6.892;2023-02-26T01:06:43;0.40;99.90
53282;DHT22;39167;52.794;6.892;2023-02-26T01:09:15;0.40;99.90
53282;DHT22;39167;52.794;6.892;2023-02-26T01:11:42;0.40;99.90
53282;DHT22;39167;52.794;6.892;2023-02-26T01:14:08;0.30;99.90
53282;DHT22;39167;52.794;6.892;2023-02-26T01:16:40;0.30;99.90
53282;DHT22;39167;52.794;6.892;2023-02-26T01:19:17;0.30;99.90
53282;DHT22;39167;52.794;6.892;2023-02-26T01:21:48;1.60;99.90
53282;DHT22;39167;52.794;6.892;2023-02-26T01:24:17;1.00;99.90
53282;DHT22;39167;52.794;6.892;2023-02-26T01:26:43;0.30;99.90
53282;DHT22;39167;52.794;6.892;2023-02-26T01:29:09;0.20;99.90
53282;DHT22;39167;52.794;6.892;2023-02-26T01:31:56;0.20;99.90
53282;DHT22;39167;52.794;6.892;2023-02-26T01:34:35;0.20;99.90
53282;DHT22;39167;52.794;6.892;2023-02-26T01:39:44;0.10;99.90
53282;DHT22;39167;52.794;6.892;2023-02-26T01:42:18;0.10;99.90
53282;DHT22;39167;52.794;6.892;2023-02-26T01:45:02;1.50;99.90
53282;DHT22;39167;52.794;6.892;2023-02-26T01:47:48;0.10;99.90
53282;DHT22;39167;52.794;6.892;2023-02-26T01:50:20;1.00;99.90
53282;DHT22;39167;52.794;6.892;2023-02-26T01:55:23;0.80;99.90
53282;DHT22;39167;52.794;6.892;2023-02-26T01:57:53;-0.10;99.90
53282;DHT22;39167;52.794;6.892;2023-02-26T02:00:20;0.70;99.90
53282;DHT22;39167;52.794;6.892;2023-02-26T02:02:46;-0.20;99.90
53282;DHT22;39167;52.794;6.892;2023-02-26T02:07:51;1.00;99.90
53282;DHT22;39167;52.794;6.892;2023-02-26T02:10:17;-0.30;99.90
53282;DHT22;39167;52.794;6.892;2023-02-26T02:12:49;-0.30;99.90
53282;DHT22;39167;52.794;6.892;2023-02-26T02:21:28;-0.30;99.90
53282;DHT22;39167;52.794;6.892;2023-02-26T02:23:54;-0.30;99.90
53282;DHT22;39167;52.794;6.892;2023-02-26T02:29:27;-0.40;99.90
53282;DHT22;39167;52.794;6.892;2023-02-26T02:32:10;0.70;99.90
53282;DHT22;39167;52.794;6.892;2023-02-26T02:34:48;0.80;99.90
53282;DHT22;39167;52.794;6.892;2023-02-26T02:40:13;-0.50;99.90
53282;DHT22;39167;52.794;6.892;2023-02-26T02:42:57;1.10;99.90
53282;DHT22;39167;52.794;6.892;2023-02-26T02:48:32;-0.50;99.90
53282;DHT22;39167;52.794;6.892;2023-02-26T02:51:12;0.20;99.90
53282;DHT22;39167;52.794;6.892;2023-02-26T02:56:37;-0.50;99.90
53282;DHT22;39167;52.794;6.892;2023-02-26T02:59:15;0.80;99.90
53282;DHT22;39167;52.794;6.892;2023-02-26T03:01:43;0.70;99.90
53282;DHT22;39167;52.794;6.892;2023-02-26T03:04:12;0.60;99.90
53282;DHT22;39167;52.794;6.892;2023-02-26T03:06:40;0.10;99.90
53282;DHT22;39167;52.794;6.892;2023-02-26T03:09:07;0.20;99.90
53282;DHT22;39167;52.794;6.892;2023-02-26T03:11:33;-0.60;99.90
53282;DHT22;39167;52.794;6.892;2023-02-26T03:13:59;0.50;99.90
53282;DHT22;39167;52.794;6.892;2023-02-26T03:19:40;-0.60;99.90
53282;DHT22;39167;52.794;6.892;2023-02-26T03:22:25;-0.70;99.90
53282;DHT22;39167;52.794;6.892;2023-02-26T03:28:03;-0.70;99.90
53282;DHT22;39167;52.794;6.892;2023-02-26T03:30:44;-0.70;99.90
53282;DHT22;39167;52.794;6.892;2023-02-26T03:33:53;0.60;99.90
53282;DHT22;39167;52.794;6.892;2023-02-26T03:36:39;-0.80;99.90
53282;DHT22;39167;52.794;6.892;2023-02-26T03:44:52;-0.80;99.90
53282;DHT22;39167;52.794;6.892;2023-02-26T03:47:20;-0.80;99.90
53282;DHT22;39167;52.794;6.892;2023-02-26T03:49:55;0.00;99.90
53282;DHT22;39167;52.794;6.892;2023-02-26T03:52:25;0.40;99.90
53282;DHT22;39167;52.794;6.892;2023-02-26T03:55:18;0.10;99.90
53282;DHT22;39167;52.794;6.892;2023-02-26T03:57:45;0.50;99.90
53282;DHT22;39167;52.794;6.892;2023-02-26T04:00:12;0.50;99.90
53282;DHT22;39167;52.794;6.892;2023-02-26T04:02:50;-0.80;99.90
53282;DHT22;39167;52.794;6.892;2023-02-26T04:05:22;-0.80;99.90
53282;DHT22;39167;52.794;6.892;2023-02-26T04:07:49;0.30;99.90
53282;DHT22;39167;52.794;6.892;2023-02-26T04:10:21;0.60;99.90
53282;DHT22;39167;52.794;6.892;2023-02-26T04:12:49;-0.20;99.90
53282;DHT22;39167;52.794;6.892;2023-02-26T04:15:15;0.20;99.90
53282;DHT22;39167;52.794;6.892;2023-02-26T04:17:41;-0.90;99.90
53282;DHT22;39167;52.794;6.892;2023-02-26T04:20:07;0.60;99.90
53282;DHT22;39167;52.794;6.892;2023-02-26T04:22:35;-2.00;99.90
53282;DHT22;39167;52.794;6.892;2023-02-26T04:25:01;-0.90;99.90
53282;DHT22;39167;52.794;6.892;2023-02-26T04:27:26;0.00;99.90
53282;DHT22;39167;52.794;6.892;2023-02-26T04:29:52;-0.90;99.90
53282;DHT22;39167;52.794;6.892;2023-02-26T04:32:18;-0.90;99.90
53282;DHT22;39167;52.794;6.892;2023-02-26T04:34:44;-1.00;99.90
53282;DHT22;39167;52.794;6.892;2023-02-26T04:37:09;-1.00;99.90
53282;DHT22;39167;52.794;6.892;2023-02-26T04:39:35;-0.60;99.90
53282;DHT22;39167;52.794;6.892;2023-02-26T04:42:01;0.50;99.90
53282;DHT22;39167;52.794;6.892;2023-02-26T04:44:29;-1.00;99.90
53282;DHT22;39167;52.794;6.892;2023-02-26T04:47:01;-1.00;99.90
53282;DHT22;39167;52.794;6.892;2023-02-26T04:49:26;-1.00;99.90
53282;DHT22;39167;52.794;6.892;2023-02-26T04:51:52;0.30;99.90
53282;DHT22;39167;52.794;6.892;2023-02-26T04:54:18;-1.00;99.90
53282;DHT22;39167;52.794;6.892;2023-02-26T04:56:44;-1.00;99.90
53282;DHT22;39167;52.794;6.892;2023-02-26T04:59:09;-1.00;99.90
53282;DHT22;39167;52.794;6.892;2023-02-26T05:01:35;-0.70;99.90
53282;DHT22;39167;52.794;6.892;2023-02-26T05:04:01;-1.10;99.90
53282;DHT22;39167;52.794;6.892;2023-02-26T05:06:27;-1.10;99.90
53282;DHT22;39167;52.794;6.892;2023-02-26T05:08:52;-1.10;99.90
53282;DHT22;39167;52.794;6.892;2023-02-26T05:11:18;0.20;99.90
53282;DHT22;39167;52.794;6.892;2023-02-26T05:13:44;0.30;99.90
53282;DHT22;39167;52.794;6.892;2023-02-26T05:16:10;0.40;99.90
53282;DHT22;39167;52.794;6.892;2023-02-26T05:18:36;0.00;99.90
53282;DHT22;39167;52.794;6.892;2023-02-26T05:21:02;-0.10;99.90
53282;DHT22;39167;52.794;6.892;2023-02-26T05:23:27;0.00;99.90
53282;DHT22;39167;52.794;6.892;2023-02-26T05:25:57;0.20;99.90
53282;DHT22;39167;52.794;6.892;2023-02-26T05:28:24;-1.10;99.90
53282;DHT22;39167;52.794;6.892;2023-02-26T05:30:51;0.10;99.90
53282;DHT22;39167;52.794;6.892;2023-02-26T05:33:17;-1.10;99.90
53282;DHT22;39167;52.794;6.892;2023-02-26T05:35:44;0.30;99.90
53282;DHT22;39167;52.794;6.892;2023-02-26T05:38:10;0.10;99.90
53282;DHT22;39167;52.794;6.892;2023-02-26T05:40:35;-1.20;99.90
53282;DHT22;39167;52.794;6.892;2023-02-26T05:43:01;-0.10;99.90
53282;DHT22;39167;52.794;6.892;2023-02-26T05:45:27;0.30;99.90
53282;DHT22;39167;52.794;6.892;2023-02-26T05:47:53;0.20;99.90
53282;DHT22;39167;52.794;6.892;2023-02-26T05:50:18;-1.20;99.90
53282;DHT22;39167;52.794;6.892;2023-02-26T05:52:47;-1.20;99.90
53282;DHT22;39167;52.794;6.892;2023-02-26T05:55:13;0.40;99.90
53282;DHT22;39167;52.794;6.892;2023-02-26T05:57:39;-1.90;99.90
53282;DHT22;39167;52.794;6.892;2023-02-26T06:00:06;-1.20;99.90
53282;DHT22;39167;52.794;6.892;2023-02-26T06:02:32;-1.20;99.90
53282;DHT22;39167;52.794;6.892;2023-02-26T06:04:57;-1.20;99.90
53282;DHT22;39167;52.794;6.892;2023-02-26T06:07:23;0.30;99.90
53282;DHT22;39167;52.794;6.892;2023-02-26T06:09:49;0.00;99.90
53282;DHT22;39167;52.794;6.892;2023-02-26T06:12:15;-1.20;99.90
53282;DHT22;39167;52.794;6.892;2023-02-26T06:14:40;0.10;99.90
53282;DHT22;39167;52.794;6.892;2023-02-26T06:17:06;-1.20;99.90
53282;DHT22;39167;52.794;6.892;2023-02-26T06:19:32;0.10;99.90
53282;DHT22;39167;52.794;6.892;2023-02-26T06:21:58;-1.20;99.90
53282;DHT22;39167;52.794;6.892;2023-02-26T06:24:24;-1.20;99.90
53282;DHT22;39167;52.794;6.892;2023-02-26T06:26:51;0.00;99.90
53282;DHT22;39167;52.794;6.892;2023-02-26T06:29:16;-1.20;99.90
53282;DHT22;39167;52.794;6.892;2023-02-26T06:31:46;0.10;99.90
53282;DHT22;39167;52.794;6.892;2023-02-26T06:34:12;-1.20;99.90
53282;DHT22;39167;52.794;6.892;2023-02-26T06:36:37;0.30;99.90
53282;DHT22;39167;52.794;6.892;2023-02-26T06:39:03;-1.10;99.90
53282;DHT22;39167;52.794;6.892;2023-02-26T06:41:29;-1.20;99.90
53282;DHT22;39167;52.794;6.892;2023-02-26T06:43:55;-0.20;99.90
53282;DHT22;39167;52.794;6.892;2023-02-26T06:46:20;0.30;99.90
53282;DHT22;39167;52.794;6.892;2023-02-26T06:48:46;-0.90;99.90
53282;DHT22;39167;52.794;6.892;2023-02-26T06:51:12;-0.30;99.90
53282;DHT22;39167;52.794;6.892;2023-02-26T06:53:38;-1.30;99.90
53282;DHT22;39167;52.794;6.892;2023-02-26T06:56:04;0.20;99.90
53282;DHT22;39167;52.794;6.892;2023-02-26T06:58:30;-1.20;99.90
53282;DHT22;39167;52.794;6.892;2023-02-26T07:00:55;-0.60;99.90
53282;DHT22;39167;52.794;6.892;2023-02-26T07:03:21;-0.20;99.90
53282;DHT22;39167;52.794;6.892;2023-02-26T07:05:47;-1.30;99.90
53282;DHT22;39167;52.794;6.892;2023-02-26T07:08:13;-0.20;99.90
53282;DHT22;39167;52.794;6.892;2023-02-26T07:10:40;0.20;99.90
53282;DHT22;39167;52.794;6.892;2023-02-26T07:13:05;-1.20;99.90
53282;DHT22;39167;52.794;6.892;2023-02-26T07:15:31;0.20;99.90
53282;DHT22;39167;52.794;6.892;2023-02-26T07:17:57;-0.40;99.90
53282;DHT22;39167;52.794;6.892;2023-02-26T07:20:25;-0.10;99.90
53282;DHT22;39167;52.794;6.892;2023-02-26T07:22:51;-0.80;99.90
53282;DHT22;39167;52.794;6.892;2023-02-26T07:25:16;-1.10;99.90
53282;DHT22;39167;52.794;6.892;2023-02-26T07:27:42;-1.10;99.90
53282;DHT22;39167;52.794;6.892;2023-02-26T07:30:09;-0.30;99.90
53282;DHT22;39167;52.794;6.892;2023-02-26T07:32:37;-1.10;99.90
53282;DHT22;39167;52.794;6.892;2023-02-26T07:35:04;-0.80;99.90
53282;DHT22;39167;52.794;6.892;2023-02-26T07:37:30;-2.20;99.90
53282;DHT22;39167;52.794;6.892;2023-02-26T07:39:55;-0.60;99.90
53282;DHT22;39167;52.794;6.892;2023-02-26T07:42:21;-1.10;99.90
53282;DHT22;39167;52.794;6.892;2023-02-26T07:44:47;-1.10;99.90
53282;DHT22;39167;52.794;6.892;2023-02-26T07:47:13;-0.40;99.90
53282;DHT22;39167;52.794;6.892;2023-02-26T07:49:39;-1.10;99.90
53282;DHT22;39167;52.794;6.892;2023-02-26T07:52:05;-1.10;99.90
53282;DHT22;39167;52.794;6.892;2023-02-26T07:54:33;0.00;99.90
53282;DHT22;39167;52.794;6.892;2023-02-26T07:56:59;0.20;99.90
53282;DHT22;39167;52.794;6.892;2023-02-26T07:59:25;-0.70;99.90
53282;DHT22;39167;52.794;6.892;2023-02-26T08:01:51;0.30;99.90
53282;DHT22;39167;52.794;6.892;2023-02-26T08:04:17;0.60;99.90
53282;DHT22;39167;52.794;6.892;2023-02-26T08:06:44;0.50;99.90
53282;DHT22;39167;52.794;6.892;2023-02-26T08:09:10;-1.00;99.90
53282;DHT22;39167;52.794;6.892;2023-02-26T08:11:36;0.50;99.90
53282;DHT22;39167;52.794;6.892;2023-02-26T08:14:06;-0.30;99.90
53282;DHT22;39167;52.794;6.892;2023-02-26T08:16:32;0.40;99.90
53282;DHT22;39167;52.794;6.892;2023-02-26T08:18:57;0.40;99.90
53282;DHT22;39167;52.794;6.892;2023-02-26T08:21:23;0.70;99.90
53282;DHT22;39167;52.794;6.892;2023-02-26T08:23:49;-1.20;99.90
53282;DHT22;39167;52.794;6.892;2023-02-26T08:26:17;-0.70;99.90
53282;DHT22;39167;52.794;6.892;2023-02-26T08:28:43;0.50;99.90
53282;DHT22;39167;52.794;6.892;2023-02-26T08:31:08;0.80;99.90
53282;DHT22;39167;52.794;6.892;2023-02-26T08:33:35;-0.70;99.90
53282;DHT22;39167;52.794;6.892;2023-02-26T08:36:01;-0.50;99.90
53282;DHT22;39167;52.794;6.892;2023-02-26T08:38:30;0.00;99.90
53282;DHT22;39167;52.794;6.892;2023-02-26T08:40:56;0.20;99.90
53282;DHT22;39167;52.794;6.892;2023-02-26T08:43:22;-0.30;99.90
53282;DHT22;39167;52.794;6.892;2023-02-26T08:45:51;-0.30;99.90
53282;DHT22;39167;52.794;6.892;2023-02-26T08:48:21;-0.20;99.90
53282;DHT22;39167;52.794;6.892;2023-02-26T08:50:47;-0.10;99.90
53282;DHT22;39167;52.794;6.892;2023-02-26T08:53:13;0.70;99.90
53282;DHT22;39167;52.794;6.892;2023-02-26T08:55:39;0.90;99.90
53282;DHT22;39167;52.794;6.892;2023-02-26T08:58:05;0.10;99.90
53282;DHT22;39167;52.794;6.892;2023-02-26T09:00:32;1.40;99.90
53282;DHT22;39167;52.794;6.892;2023-02-26T09:02:58;1.70;99.90
53282;DHT22;39167;52.794;6.892;2023-02-26T09:05:24;0.40;99.90
53282;DHT22;39167;52.794;6.892;2023-02-26T09:07:49;1.60;99.90
53282;DHT22;39167;52.794;6.892;2023-02-26T09:10:16;0.50;99.90
53282;DHT22;39167;52.794;6.892;2023-02-26T09:12:42;0.60;99.90
53282;DHT22;39167;52.794;6.892;2023-02-26T09:15:09;1.00;99.90
53282;DHT22;39167;52.794;6.892;2023-02-26T09:17:35;0.80;99.90
53282;DHT22;39167;52.794;6.892;2023-02-26T09:20:03;0.20;99.90
53282;DHT22;39167;52.794;6.892;2023-02-26T09:22:29;0.90;99.90
53282;DHT22;39167;52.794;6.892;2023-02-26T09:24:55;1.80;99.90
53282;DHT22;39167;52.794;6.892;2023-02-26T09:27:20;1.10;99.90
53282;DHT22;39167;52.794;6.892;2023-02-26T09:29:49;2.20;99.90
53282;DHT22;39167;52.794;6.892;2023-02-26T09:32:15;1.80;99.90
53282;DHT22;39167;52.794;6.892;2023-02-26T09:34:43;1.40;99.90
53282;DHT22;39167;52.794;6.892;2023-02-26T09:37:09;1.60;99.90
53282;DHT22;39167;52.794;6.892;2023-02-26T09:39:35;1.60;99.90
53282;DHT22;39167;52.794;6.892;2023-02-26T09:44:55;1.70;99.90
53282;DHT22;39167;52.794;6.892;2023-02-26T09:47:41;1.80;99.90
53282;DHT22;39167;52.794;6.892;2023-02-26T09:50:31;1.90;99.90
53282;DHT22;39167;52.794;6.892;2023-02-26T09:53:04;2.00;99.90
53282;DHT22;39167;52.794;6.892;2023-02-26T09:55:37;2.10;99.90
53282;DHT22;39167;52.794;6.892;2023-02-26T10:09:32;2.40;99.90
53282;DHT22;39167;52.794;6.892;2023-02-26T10:14:36;2.60;99.90
53282;DHT22;39167;52.794;6.892;2023-02-26T10:17:15;2.70;99.90
53282;DHT22;39167;52.794;6.892;2023-02-26T10:19:45;2.80;99.90
53282;DHT22;39167;52.794;6.892;2023-02-26T10:22:29;3.60;99.90
53282;DHT22;39167;52.794;6.892;2023-02-26T10:25:06;2.90;99.90
53282;DHT22;39167;52.794;6.892;2023-02-26T10:27:37;3.00;99.90
53282;DHT22;39167;52.794;6.892;2023-02-26T10:33:17;3.10;99.90
53282;DHT22;39167;52.794;6.892;2023-02-26T10:35:51;3.20;99.90
53282;DHT22;39167;52.794;6.892;2023-02-26T10:38:22;3.30;99.90
53282;DHT22;39167;52.794;6.892;2023-02-26T10:43:38;3.40;99.90
53282;DHT22;39167;52.794;6.892;2023-02-26T10:51:39;3.50;99.90
53282;DHT22;39167;52.794;6.892;2023-02-26T10:54:21;3.60;99.90
53282;DHT22;39167;52.794;6.892;2023-02-26T10:56:49;3.70;99.90
53282;DHT22;39167;52.794;6.892;2023-02-26T10:59:14;3.80;99.90
53282;DHT22;39167;52.794;6.892;2023-02-26T11:01:40;3.80;99.90
53282;DHT22;39167;52.794;6.892;2023-02-26T11:04:14;4.30;99.90
53282;DHT22;39167;52.794;6.892;2023-02-26T11:06:47;3.90;99.90
53282;DHT22;39167;52.794;6.892;2023-02-26T11:12:18;4.00;99.90
53282;DHT22;39167;52.794;6.892;2023-02-26T11:14:46;4.00;99.90
53282;DHT22;39167;52.794;6.892;2023-02-26T11:17:22;4.90;99.90
53282;DHT22;39167;52.794;6.892;2023-02-26T11:19:56;4.10;99.90
53282;DHT22;39167;52.794;6.892;2023-02-26T11:22:26;4.20;99.90
53282;DHT22;39167;52.794;6.892;2023-02-26T11:24:53;4.10;99.90
53282;DHT22;39167;52.794;6.892;2023-02-26T11:27:33;4.80;99.90
53282;DHT22;39167;52.794;6.892;2023-02-26T11:30:26;4.30;99.90
53282;DHT22;39167;52.794;6.892;2023-02-26T11:32:52;4.30;99.90
53282;DHT22;39167;52.794;6.892;2023-02-26T11:35:21;4.40;99.90
53282;DHT22;39167;52.794;6.892;2023-02-26T11:37:51;4.90;99.90
53282;DHT22;39167;52.794;6.892;2023-02-26T11:40:23;4.50;99.90
53282;DHT22;39167;52.794;6.892;2023-02-26T11:42:57;4.50;99.90
53282;DHT22;39167;52.794;6.892;2023-02-26T11:45:24;4.60;99.90
53282;DHT22;39167;52.794;6.892;2023-02-26T11:48:04;4.60;99.90
53282;DHT22;39167;52.794;6.892;2023-02-26T11:50:37;4.70;99.90
53282;DHT22;39167;52.794;6.892;2023-02-26T11:53:15;5.10;99.90
53282;DHT22;39167;52.794;6.892;2023-02-26T11:55:44;4.80;99.90
53282;DHT22;39167;52.794;6.892;2023-02-26T11:58:23;4.80;99.90
53282;DHT22;39167;52.794;6.892;2023-02-26T12:00:53;4.90;99.90
53282;DHT22;39167;52.794;6.892;2023-02-26T12:03:26;4.90;99.90
53282;DHT22;39167;52.794;6.892;2023-02-26T12:05:57;4.90;99.90
53282;DHT22;39167;52.794;6.892;2023-02-26T12:08:33;5.00;99.90
53282;DHT22;39167;52.794;6.892;2023-02-26T12:22:20;5.20;99.90
53282;DHT22;39167;52.794;6.892;2023-02-26T12:25:00;5.20;99.90
53282;DHT22;39167;52.794;6.892;2023-02-26T12:41:36;5.30;99.90
53282;DHT22;39167;52.794;6.892;2023-02-26T12:45:03;5.30;99.90
53282;DHT22;39167;52.794;6.892;2023-02-26T13:00:41;5.00;99.90
53282;DHT22;39167;52.794;6.892;2023-02-26T13:06:28;5.10;99.90
53282;DHT22;39167;52.794;6.892;2023-02-26T13:09:32;5.20;99.90
53282;DHT22;39167;52.794;6.892;2023-02-26T13:15:47;5.40;99.90
53282;DHT22;39167;52.794;6.892;2023-02-26T13:21:01;5.50;99.90
53282;DHT22;39167;52.794;6.892;2023-02-26T13:23:37;5.60;99.90
53282;DHT22;39167;52.794;6.892;2023-02-26T13:26:07;5.50;99.90
53282;DHT22;39167;52.794;6.892;2023-02-26T13:31:31;5.50;99.90
53282;DHT22;39167;52.794;6.892;2023-02-26T13:34:01;5.50;99.90
53282;DHT22;39167;52.794;6.892;2023-02-26T13:36:28;5.60;99.90
53282;DHT22;39167;52.794;6.892;2023-02-26T13:39:28;5.60;99.90
53282;DHT22;39167;52.794;6.892;2023-02-26T13:47:36;5.70;99.90
53282;DHT22;39167;52.794;6.892;2023-02-26T13:50:45;5.70;99.90
53282;DHT22;39167;52.794;6.892;2023-02-26T13:58:40;5.90;99.90
53282;DHT22;39167;52.794;6.892;2023-02-26T14:01:18;6.00;99.90
53282;DHT22;39167;52.794;6.892;2023-02-26T14:06:44;6.00;99.90
53282;DHT22;39167;52.794;6.892;2023-02-26T14:11:56;6.10;99.90
53282;DHT22;39167;52.794;6.892;2023-02-26T14:14:34;6.10;99.90
53282;DHT22;39167;52.794;6.892;2023-02-26T14:19:43;6.00;99.90
53282;DHT22;39167;52.794;6.892;2023-02-26T14:27:35;6.00;99.90
53282;DHT22;39167;52.794;6.892;2023-02-26T14:32:45;6.00;99.90
53282;DHT22;39167;52.794;6.892;2023-02-26T14:35:24;6.00;99.90
53282;DHT22;39167;52.794;6.892;2023-02-26T14:38:07;6.00;99.90
53282;DHT22;39167;52.794;6.892;2023-02-26T14:40:43;6.10;99.90
53282;DHT22;39167;52.794;6.892;2023-02-26T14:43:20;6.00;99.90
53282;DHT22;39167;52.794;6.892;2023-02-26T14:45:48;6.00;99.90
53282;DHT22;39167;52.794;6.892;2023-02-26T14:48:16;5.90;99.90
53282;DHT22;39167;52.794;6.892;2023-02-26T14:51:09;5.90;99.90
53282;DHT22;39167;52.794;6.892;2023-02-26T14:53:53;5.90;99.90
53282;DHT22;39167;52.794;6.892;2023-02-26T15:04:50;5.90;99.90
53282;DHT22;39167;52.794;6.892;2023-02-26T15:07:33;5.60;99.90
53282;DHT22;39167;52.794;6.892;2023-02-26T15:10:23;6.20;99.90
53282;DHT22;39167;52.794;6.892;2023-02-26T15:21:31;5.50;99.90
53282;DHT22;39167;52.794;6.892;2023-02-26T15:23:50;5.50;99.90
53282;DHT22;39167;52.794;6.892;2023-02-26T15:26:24;5.40;99.90
53282;DHT22;39167;52.794;6.892;2023-02-26T15:28:51;5.30;99.90
53282;DHT22;39167;52.794;6.892;2023-02-26T15:31:20;5.20;99.90
53282;DHT22;39167;52.794;6.892;2023-02-26T15:33:49;5.20;99.90
53282;DHT22;39167;52.794;6.892;2023-02-26T15:36:18;5.70;99.90
53282;DHT22;39167;52.794;6.892;2023-02-26T15:38:55;5.10;99.90
53282;DHT22;39167;52.794;6.892;2023-02-26T15:41:22;5.20;99.90
53282;DHT22;39167;52.794;6.892;2023-02-26T15:43:53;5.10;99.90
53282;DHT22;39167;52.794;6.892;2023-02-26T15:46:24;5.10;99.90
53282;DHT22;39167;52.794;6.892;2023-02-26T15:48:51;5.10;99.90
53282;DHT22;39167;52.794;6.892;2023-02-26T15:51:19;5.10;99.90
53282;DHT22;39167;52.794;6.892;2023-02-26T15:53:48;5.70;99.90
53282;DHT22;39167;52.794;6.892;2023-02-26T15:56:19;5.00;99.90
53282;DHT22;39167;52.794;6.892;2023-02-26T15:58:52;5.00;99.90
53282;DHT22;39167;52.794;6.892;2023-02-26T16:01:24;5.60;99.90
53282;DHT22;39167;52.794;6.892;2023-02-26T16:03:51;4.90;99.90
53282;DHT22;39167;52.794;6.892;2023-02-26T16:06:30;4.90;99.90
53282;DHT22;39167;52.794;6.892;2023-02-26T16:08:58;4.80;99.90
53282;DHT22;39167;52.794;6.892;2023-02-26T16:11:30;4.80;99.90
53282;DHT22;39167;52.794;6.892;2023-02-26T16:13:58;4.70;99.90
53282;DHT22;39167;52.794;6.892;2023-02-26T16:16:27;4.60;99.90
53282;DHT22;39167;52.794;6.892;2023-02-26T16:18:54;4.60;99.90
53282;DHT22;39167;52.794;6.892;2023-02-26T16:21:36;4.60;99.90
53282;DHT22;39167;52.794;6.892;2023-02-26T16:24:05;4.60;99.90
53282;DHT22;39167;52.794;6.892;2023-02-26T16:26:38;4.50;99.90
53282;DHT22;39167;52.794;6.892;2023-02-26T16:29:27;4.40;99.90
53282;DHT22;39167;52.794;6.892;2023-02-26T16:31:59;4.30;99.90
53282;DHT22;39167;52.794;6.892;2023-02-26T16:34:42;4.30;99.90
53282;DHT22;39167;52.794;6.892;2023-02-26T16:40:04;4.20;99.90
53282;DHT22;39167;52.794;6.892;2023-02-26T16:47:59;4.10;99.90
53282;DHT22;39167;52.794;6.892;2023-02-26T16:50:27;4.10;99.90
53282;DHT22;39167;52.794;6.892;2023-02-26T16:53:07;4.00;99.90
53282;DHT22;39167;52.794;6.892;2023-02-26T16:55:36;4.00;99.90
53282;DHT22;39167;52.794;6.892;2023-02-26T16:58:06;4.00;99.90
53282;DHT22;39167;52.794;6.892;2023-02-26T17:00:32;4.50;99.90
53282;DHT22;39167;52.794;6.892;2023-02-26T17:05:40;3.90;99.90
53282;DHT22;39167;52.794;6.892;2023-02-26T17:10:43;3.90;99.90
53282;DHT22;39167;52.794;6.892;2023-02-26T17:15:38;4.20;99.90
53282;DHT22;39167;52.794;6.892;2023-02-26T17:18:05;3.20;99.90
53282;DHT22;39167;52.794;6.892;2023-02-26T17:20:31;3.80;99.90
53282;DHT22;39167;52.794;6.892;2023-02-26T17:22:59;3.70;99.90
53282;DHT22;39167;52.794;6.892;2023-02-26T17:25:26;3.70;99.90
53282;DHT22;39167;52.794;6.892;2023-02-26T17:27:55;3.70;99.90
53282;DHT22;39167;52.794;6.892;2023-02-26T17:30:22;4.00;99.90
53282;DHT22;39167;52.794;6.892;2023-02-26T17:32:54;3.70;99.90
53282;DHT22;39167;52.794;6.892;2023-02-26T17:35:20;3.60;99.90
53282;DHT22;39167;52.794;6.892;2023-02-26T17:37:46;3.60;99.90
53282;DHT22;39167;52.794;6.892;2023-02-26T17:40:42;4.00;99.90
53282;DHT22;39167;52.794;6.892;2023-02-26T17:43:14;3.50;99.90
53282;DHT22;39167;52.794;6.892;2023-02-26T17:45:40;3.60;99.90
53282;DHT22;39167;52.794;6.892;2023-02-26T17:48:06;4.00;99.90
53282;DHT22;39167;52.794;6.892;2023-02-26T17:50:43;3.50;99.90
53282;DHT22;39167;52.794;6.892;2023-02-26T17:53:11;3.50;99.90
53282;DHT22;39167;52.794;6.892;2023-02-26T17:55:37;3.50;99.90
53282;DHT22;39167;52.794;6.892;2023-02-26T17:58:06;3.40;99.90
53282;DHT22;39167;52.794;6.892;2023-02-26T18:00:32;4.30;99.90
53282;DHT22;39167;52.794;6.892;2023-02-26T18:03:04;4.10;99.90
53282;DHT22;39167;52.794;6.892;2023-02-26T18:05:30;3.40;99.90
53282;DHT22;39167;52.794;6.892;2023-02-26T18:08:01;3.40;99.90
53282;DHT22;39167;52.794;6.892;2023-02-26T18:10:26;3.40;99.90
53282;DHT22;39167;52.794;6.892;2023-02-26T18:12:52;3.40;99.90
53282;DHT22;39167;52.794;6.892;2023-02-26T18:15:18;3.40;99.90
53282;DHT22;39167;52.794;6.892;2023-02-26T18:17:43;3.30;99.90
53282;DHT22;39167;52.794;6.892;2023-02-26T18:20:18;3.30;99.90
53282;DHT22;39167;52.794;6.892;2023-02-26T18:22:50;3.30;99.90
53282;DHT22;39167;52.794;6.892;2023-02-26T18:25:16;3.80;99.90
53282;DHT22;39167;52.794;6.892;2023-02-26T18:27:42;3.30;99.90
53282;DHT22;39167;52.794;6.892;2023-02-26T18:30:30;3.20;99.90
53282;DHT22;39167;52.794;6.892;2023-02-26T18:32:56;3.20;99.90
53282;DHT22;39167;52.794;6.892;2023-02-26T18:35:24;3.20;99.90
53282;DHT22;39167;52.794;6.892;2023-02-26T18:37:51;3.20;99.90
53282;DHT22;39167;52.794;6.892;2023-02-26T18:40:20;3.20;99.90
53282;DHT22;39167;52.794;6.892;2023-02-26T18:42:47;3.10;99.90
53282;DHT22;39167;52.794;6.892;2023-02-26T18:45:13;3.10;99.90
53282;DHT22;39167;52.794;6.892;2023-02-26T18:47:39;3.10;99.90
53282;DHT22;39167;52.794;6.892;2023-02-26T18:50:06;3.10;99.90
53282;DHT22;39167;52.794;6.892;2023-02-26T18:52:32;3.10;99.90
53282;DHT22;39167;52.794;6.892;2023-02-26T18:54:58;3.10;99.90
53282;DHT22;39167;52.794;6.892;2023-02-26T18:57:25;3.50;99.90
53282;DHT22;39167;52.794;6.892;2023-02-26T18:59:51;3.00;99.90
53282;DHT22;39167;52.794;6.892;2023-02-26T19:02:16;3.00;99.90
53282;DHT22;39167;52.794;6.892;2023-02-26T19:04:42;3.00;99.90
53282;DHT22;39167;52.794;6.892;2023-02-26T19:07:08;3.00;99.90
53282;DHT22;39167;52.794;6.892;2023-02-26T19:09:34;3.70;99.90